首页
METAR-TAF:

METAR-TAF

机场 :

卢布林, 波兰

纬度: 51-13-55N, 经度: 22-41-25E, 海拔: 203米

当前天气观测

该预报发布于16分钟前的07:00 UTC
风速12节,风向东转东南
温度 21°C
湿度 78%
气压 1005 hPa
能见度10公里或以上
少量云层高于1800英尺

METAR: EPLB 200700Z 12012KT 9999 FEW018 21/17 Q1005

时间: 09:16 (07:16 UTC)

预报

该预报发布于1小时和46分钟前的05:30 UTC
预报有效从20日的 06点(UTC)到 20日的 15点(UTC)
风速12节,风向东转东南
能见度10公里或以上
1500米以下无云,无积雨云
短暂存在
从 20日的 13点(UTC)到 20日的 15点(UTC)
风速15节,风向多变,有时为30节阵风
能見度: 3000
多云层高于2500英尺, 积雨云.
雷暴, 雨

TAF: EPLB 200530Z 2006/2015 12012KT CAVOK TEMPO 2013/2015 VRB15G30KT 3000 TSRA BKN025CB

超过4000个机场的气象观测和天气预报(METAR&TAF报告)。

可查询的气象台以黄色和红色小点在地图上表示。

将鼠标移到小点上方,可查看气象台名称。

然后点击查看天气观测和预报。

如需切换地图:点击带黑十字的绿色按钮放大地图;点击带横线的绿色按钮缩小地图;或者点击绿色箭头查看邻近地区的地图。


METAR-TAF: